createdAt,value
2019-06-27T00:00:33.314Z,25.80
2019-06-27T00:01:40.272Z,25.80
2019-06-27T00:02:46.575Z,25.80
2019-06-27T00:03:54.756Z,25.80
2019-06-27T00:05:01.085Z,25.80
2019-06-27T00:06:08.103Z,25.80
2019-06-27T00:07:14.351Z,25.80
2019-06-27T00:08:21.577Z,25.80
2019-06-27T00:09:27.890Z,25.80
2019-06-27T00:10:34.924Z,25.80
2019-06-27T00:11:41.359Z,25.70
2019-06-27T00:12:48.317Z,25.70
2019-06-27T00:13:54.797Z,25.70
2019-06-27T00:15:01.802Z,25.80
2019-06-27T00:16:08.606Z,25.70
2019-06-27T00:17:15.594Z,25.80
2019-06-27T00:18:21.937Z,25.80
2019-06-27T00:19:28.837Z,25.80
2019-06-27T00:20:35.217Z,25.70
2019-06-27T00:21:42.119Z,25.70
2019-06-27T00:22:48.548Z,25.70
2019-06-27T00:23:55.333Z,25.70
2019-06-27T00:25:01.930Z,25.70
2019-06-27T00:26:08.949Z,25.50
2019-06-27T00:27:15.399Z,25.40
2019-06-27T00:28:22.205Z,25.40
2019-06-27T00:29:28.481Z,25.40
2019-06-27T00:30:35.556Z,25.40
2019-06-27T00:31:41.979Z,25.40
2019-06-27T00:32:48.842Z,25.40
2019-06-27T00:33:55.310Z,25.50
2019-06-27T00:35:02.242Z,25.40
2019-06-27T00:36:09.517Z,25.50
2019-06-27T00:37:16.303Z,25.50
2019-06-27T00:38:22.731Z,25.50
2019-06-27T00:39:29.709Z,25.50
2019-06-27T00:40:35.962Z,25.50
2019-06-27T00:41:43.649Z,25.50
2019-06-27T00:42:50.183Z,25.50
2019-06-27T00:43:57.401Z,25.50
2019-06-27T00:45:03.741Z,25.50
2019-06-27T00:46:10.511Z,25.50
2019-06-27T00:47:16.953Z,25.50
2019-06-27T00:48:23.783Z,25.50
2019-06-27T00:49:30.042Z,25.50
2019-06-27T00:50:37.059Z,25.50
2019-06-27T00:51:45.331Z,25.50
2019-06-27T00:52:51.787Z,25.40
2019-06-27T00:53:58.196Z,25.40
2019-06-27T00:55:05.479Z,25.40
2019-06-27T00:56:11.958Z,25.40
2019-06-27T00:57:19.174Z,25.30
2019-06-27T00:58:26.162Z,25.30
2019-06-27T00:59:33.209Z,25.20
2019-06-27T01:00:39.727Z,25.20
2019-06-27T01:01:46.700Z,25.30
2019-06-27T01:02:52.945Z,25.30
2019-06-27T01:03:59.821Z,25.30
2019-06-27T01:05:06.586Z,25.20
2019-06-27T01:06:13.445Z,25.20
2019-06-27T01:07:19.824Z,25.20
2019-06-27T01:08:26.726Z,25.20
2019-06-27T01:09:33.176Z,25.20
2019-06-27T01:10:40.226Z,25.10
2019-06-27T01:11:46.576Z,25.10
2019-06-27T01:12:56.722Z,25.20
2019-06-27T01:14:04.629Z,25.10
2019-06-27T01:15:11.815Z,25.10
2019-06-27T01:16:18.217Z,25.10
2019-06-27T01:17:25.113Z,25.00
2019-06-27T01:18:31.355Z,25.00
2019-06-27T01:19:38.207Z,25.00
2019-06-27T01:20:44.689Z,24.90
2019-06-27T01:21:52.196Z,24.90
2019-06-27T01:22:59.679Z,25.00
2019-06-27T01:24:06.589Z,25.00
2019-06-27T01:25:13.322Z,25.00
2019-06-27T01:26:21.019Z,25.00
2019-06-27T01:27:30.267Z,25.00
2019-06-27T01:28:35.787Z,25.00
2019-06-27T01:29:42.062Z,25.00
2019-06-27T01:30:49.009Z,25.00
2019-06-27T01:31:56.277Z,24.90
2019-06-27T01:33:03.268Z,24.90
2019-06-27T01:34:09.539Z,24.90
2019-06-27T01:35:17.540Z,24.90
2019-06-27T01:36:23.975Z,24.80
2019-06-27T01:37:31.094Z,24.80
2019-06-27T01:38:37.350Z,24.80
2019-06-27T01:39:45.326Z,24.80
2019-06-27T01:40:51.567Z,24.80
2019-06-27T01:41:58.498Z,24.70
2019-06-27T01:43:04.860Z,24.70
2019-06-27T01:44:30.438Z,24.70
2019-06-27T01:45:45.795Z,24.70
2019-06-27T01:46:52.691Z,24.70
2019-06-27T01:47:59.138Z,24.70
2019-06-27T01:49:06.150Z,24.70
2019-06-27T01:50:12.619Z,24.70
2019-06-27T01:51:19.791Z,24.60
2019-06-27T01:52:26.118Z,24.60
2019-06-27T01:53:33.055Z,24.50
2019-06-27T01:54:39.549Z,24.50
2019-06-27T01:55:46.501Z,24.50
2019-06-27T01:56:54.115Z,24.50
2019-06-27T01:58:01.102Z,24.40
2019-06-27T01:59:07.479Z,24.40
2019-06-27T02:00:14.626Z,24.40
2019-06-27T02:01:20.996Z,24.30
2019-06-27T02:02:28.229Z,24.40
2019-06-27T02:03:34.458Z,24.40
2019-06-27T02:04:41.591Z,24.40
2019-06-27T02:05:48.014Z,24.40
2019-06-27T02:06:54.960Z,24.40
2019-06-27T02:08:01.461Z,24.40
2019-06-27T02:09:08.524Z,24.40
2019-06-27T02:10:14.989Z,24.40
2019-06-27T02:11:21.941Z,24.20
2019-06-27T02:12:28.358Z,24.20
2019-06-27T02:13:35.280Z,24.20
2019-06-27T02:14:41.595Z,24.20
2019-06-27T02:15:48.574Z,24.20
2019-06-27T02:16:55.015Z,24.20
2019-06-27T02:18:01.731Z,24.20
2019-06-27T02:19:08.211Z,24.10
2019-06-27T02:20:15.297Z,24.20
2019-06-27T02:21:21.631Z,24.10
2019-06-27T02:22:28.521Z,24.10
2019-06-27T02:23:34.860Z,24.10
2019-06-27T02:24:41.697Z,24.10
2019-06-27T02:25:49.133Z,24.00
2019-06-27T02:26:56.042Z,24.00
2019-06-27T02:28:04.083Z,24.00
2019-06-27T02:29:11.026Z,24.00
2019-06-27T02:30:21.175Z,24.00
2019-06-27T02:31:28.276Z,24.00
2019-06-27T02:32:34.603Z,24.00
2019-06-27T02:33:41.499Z,23.90
2019-06-27T02:34:47.855Z,23.90
2019-06-27T02:35:54.723Z,23.90
2019-06-27T02:37:01.030Z,23.90
2019-06-27T02:38:08.198Z,23.90
2019-06-27T02:39:14.439Z,23.90
2019-06-27T02:40:21.321Z,23.80
2019-06-27T02:41:27.762Z,23.70
2019-06-27T02:42:34.745Z,23.70
2019-06-27T02:43:41.092Z,23.70
2019-06-27T02:44:48.051Z,23.70
2019-06-27T02:45:54.477Z,23.70
2019-06-27T02:47:01.333Z,23.70
2019-06-27T02:48:07.748Z,23.60
2019-06-27T02:49:14.700Z,23.60
2019-06-27T02:50:21.065Z,23.60
2019-06-27T02:51:27.900Z,23.60
2019-06-27T02:52:34.191Z,23.60
2019-06-27T02:53:41.193Z,23.50
2019-06-27T02:54:47.261Z,23.60
2019-06-27T02:55:53.936Z,23.50
2019-06-27T02:57:00.567Z,23.50
2019-06-27T02:58:27.793Z,23.50
2019-06-27T02:59:15.391Z,23.50
2019-06-27T03:00:23.489Z,23.40
2019-06-27T03:01:29.928Z,23.40
2019-06-27T03:02:37.146Z,23.30
2019-06-27T03:03:43.553Z,23.30
2019-06-27T03:04:50.432Z,23.30
2019-06-27T03:05:56.996Z,23.30
2019-06-27T03:07:04.998Z,23.30
2019-06-27T03:08:11.381Z,23.30
2019-06-27T03:09:18.355Z,23.30
2019-06-27T03:10:24.918Z,23.30
2019-06-27T03:11:32.036Z,23.20
2019-06-27T03:12:38.700Z,23.30
2019-06-27T03:13:45.717Z,23.30
2019-06-27T03:14:53.132Z,23.30
2019-06-27T03:16:01.380Z,23.30
2019-06-27T03:17:07.672Z,23.30
2019-06-27T03:18:14.756Z,23.30
2019-06-27T03:19:21.024Z,23.30
2019-06-27T03:20:28.988Z,23.30
2019-06-27T03:21:35.346Z,23.30
2019-06-27T03:22:42.276Z,23.20
2019-06-27T03:23:48.737Z,23.20
2019-06-27T03:24:55.808Z,23.10
2019-06-27T03:26:02.459Z,23.10
2019-06-27T03:27:09.440Z,23.10
2019-06-27T03:28:15.728Z,23.00
2019-06-27T03:29:22.455Z,23.00
2019-06-27T03:30:28.658Z,23.00
2019-06-27T03:31:35.627Z,23.00
2019-06-27T03:32:41.899Z,22.90
2019-06-27T03:33:48.830Z,22.90
2019-06-27T03:34:55.264Z,22.90
2019-06-27T03:36:02.260Z,22.90
2019-06-27T03:37:08.789Z,22.90
2019-06-27T03:38:15.938Z,22.90
2019-06-27T03:39:22.528Z,22.80
2019-06-27T03:40:29.432Z,22.80
2019-06-27T03:41:35.560Z,22.90
2019-06-27T03:42:43.657Z,22.80
2019-06-27T03:43:50.034Z,22.80
2019-06-27T03:44:56.981Z,22.80
2019-06-27T03:46:03.397Z,22.80
2019-06-27T03:47:10.333Z,22.80
2019-06-27T03:48:16.591Z,22.80
2019-06-27T03:49:23.484Z,22.80
2019-06-27T03:50:29.840Z,22.80
2019-06-27T03:51:36.763Z,22.80
2019-06-27T03:52:42.945Z,22.80
2019-06-27T03:53:49.943Z,22.90
2019-06-27T03:54:56.668Z,23.00
2019-06-27T03:56:03.776Z,23.00
2019-06-27T03:57:10.474Z,23.00
2019-06-27T03:58:17.608Z,23.00
2019-06-27T03:59:23.856Z,23.00
2019-06-27T04:00:34.243Z,23.00
2019-06-27T04:01:40.687Z,22.90
2019-06-27T04:02:47.848Z,23.00
2019-06-27T04:03:54.110Z,23.00
2019-06-27T04:05:01.294Z,23.10
2019-06-27T04:06:08.119Z,23.10
2019-06-27T04:07:14.845Z,23.10
2019-06-27T04:08:21.178Z,23.00
2019-06-27T04:09:28.528Z,22.90
2019-06-27T04:10:35.105Z,22.90
2019-06-27T04:11:42.456Z,22.90
2019-06-27T04:12:48.808Z,22.90
2019-06-27T04:13:55.915Z,22.80
2019-06-27T04:15:02.270Z,22.90
2019-06-27T04:16:08.927Z,22.80
2019-06-27T04:17:15.309Z,22.90
2019-06-27T04:18:22.176Z,22.90
2019-06-27T04:19:28.442Z,22.90
2019-06-27T04:20:35.474Z,23.00
2019-06-27T04:21:43.180Z,22.90
2019-06-27T04:22:50.079Z,22.90
2019-06-27T04:23:56.482Z,22.90
2019-06-27T04:25:03.449Z,23.00
2019-06-27T04:26:09.798Z,23.00
2019-06-27T04:27:16.822Z,23.00
2019-06-27T04:28:23.008Z,22.90
2019-06-27T04:29:34.069Z,22.90
2019-06-27T04:30:37.979Z,22.90
2019-06-27T04:31:44.994Z,22.90
2019-06-27T04:32:51.385Z,23.00
2019-06-27T04:33:58.222Z,23.00
2019-06-27T04:35:05.345Z,23.10
2019-06-27T04:36:12.330Z,23.20
2019-06-27T04:37:18.791Z,23.10
2019-06-27T04:38:25.643Z,23.10
2019-06-27T04:39:32.230Z,23.00
2019-06-27T04:40:39.308Z,23.10
2019-06-27T04:41:45.857Z,23.20
2019-06-27T04:42:53.771Z,23.30
2019-06-27T04:44:00.973Z,23.20
2019-06-27T04:45:08.250Z,23.20
2019-06-27T04:46:14.582Z,23.20
2019-06-27T04:47:21.552Z,23.10
2019-06-27T04:48:27.729Z,23.00
2019-06-27T04:49:34.386Z,22.90
2019-06-27T04:50:40.828Z,23.00
2019-06-27T04:51:47.727Z,23.00
2019-06-27T04:52:54.100Z,23.00
2019-06-27T04:54:00.967Z,22.90
2019-06-27T04:55:08.617Z,23.00
2019-06-27T04:56:15.708Z,23.00
2019-06-27T04:57:21.869Z,23.00
2019-06-27T04:58:28.788Z,23.00
2019-06-27T04:59:51.865Z,23.00
2019-06-27T05:00:43.758Z,23.10
2019-06-27T05:01:49.966Z,23.10
2019-06-27T05:02:56.957Z,23.40
2019-06-27T05:04:03.337Z,23.40
2019-06-27T05:05:10.354Z,23.50
2019-06-27T05:06:16.958Z,23.40
2019-06-27T05:07:23.907Z,23.40
2019-06-27T05:08:30.074Z,23.30
2019-06-27T05:09:36.889Z,23.30
2019-06-27T05:10:43.302Z,23.20
2019-06-27T05:11:50.364Z,23.20
2019-06-27T05:12:56.800Z,23.10
2019-06-27T05:14:03.775Z,23.00
2019-06-27T05:15:10.201Z,23.00
2019-06-27T05:16:17.227Z,23.10
2019-06-27T05:17:23.589Z,23.20
2019-06-27T05:18:30.561Z,23.30
2019-06-27T05:19:36.941Z,23.20
2019-06-27T05:20:43.712Z,23.20
2019-06-27T05:25:40.771Z,23.30
2019-06-27T05:26:47.490Z,23.20
2019-06-27T05:27:53.860Z,23.00
2019-06-27T05:29:00.779Z,23.00
2019-06-27T05:30:09.970Z,23.20
2019-06-27T05:31:16.157Z,23.30
2019-06-27T05:32:22.468Z,23.30
2019-06-27T05:33:29.276Z,23.20
2019-06-27T05:34:35.625Z,23.10
2019-06-27T05:35:42.591Z,23.20
2019-06-27T05:36:48.853Z,23.20
2019-06-27T05:37:55.554Z,23.20
2019-06-27T05:39:01.881Z,23.20
2019-06-27T05:40:10.485Z,23.20
2019-06-27T05:41:17.085Z,23.20
2019-06-27T05:42:24.215Z,23.20
2019-06-27T05:43:30.408Z,23.30
2019-06-27T05:44:37.346Z,23.20
2019-06-27T05:45:44.038Z,23.20
2019-06-27T05:46:51.074Z,23.10
2019-06-27T05:47:57.386Z,23.20
2019-06-27T05:49:05.688Z,23.10
2019-06-27T05:50:12.321Z,23.10
2019-06-27T05:51:19.261Z,23.30
2019-06-27T05:52:28.153Z,23.30
2019-06-27T05:53:53.679Z,23.30
2019-06-27T05:55:00.249Z,23.30
2019-06-27T05:56:07.421Z,23.50
2019-06-27T05:57:13.603Z,23.60
2019-06-27T05:58:20.883Z,23.50
2019-06-27T05:59:27.110Z,23.40
2019-06-27T06:00:34.117Z,23.50
2019-06-27T06:01:40.390Z,23.40
2019-06-27T06:02:47.355Z,23.50
2019-06-27T06:03:53.895Z,23.40
2019-06-27T06:05:00.772Z,23.40
2019-06-27T06:06:06.812Z,23.20
2019-06-27T06:07:14.038Z,23.30
2019-06-27T06:08:20.333Z,23.20
2019-06-27T06:09:27.182Z,23.00
2019-06-27T06:10:33.622Z,23.10
2019-06-27T06:11:40.780Z,23.30
2019-06-27T06:12:47.142Z,23.30
2019-06-27T06:13:54.172Z,23.30
2019-06-27T06:15:00.501Z,23.30
2019-06-27T06:16:08.008Z,23.20
2019-06-27T06:17:14.401Z,23.40
2019-06-27T06:18:21.182Z,23.40
2019-06-27T06:19:28.501Z,23.30
2019-06-27T06:20:35.495Z,23.40
2019-06-27T06:21:41.988Z,23.40
2019-06-27T06:22:49.063Z,23.50
2019-06-27T06:23:55.347Z,23.40
2019-06-27T06:25:02.253Z,23.40
2019-06-27T06:26:08.573Z,23.30
2019-06-27T06:27:15.424Z,23.20
2019-06-27T06:28:21.777Z,23.10
2019-06-27T06:29:28.826Z,23.00
2019-06-27T06:30:44.266Z,23.00
2019-06-27T06:31:43.800Z,23.00
2019-06-27T06:32:50.185Z,23.00
2019-06-27T06:33:57.112Z,23.10
2019-06-27T06:35:03.292Z,23.00
2019-06-27T06:36:10.113Z,23.00
2019-06-27T06:37:16.435Z,23.00
2019-06-27T06:38:23.454Z,22.90
2019-06-27T06:39:30.027Z,22.80
2019-06-27T06:40:40.088Z,22.50
2019-06-27T06:41:46.407Z,22.50
2019-06-27T06:42:56.845Z,22.30
2019-06-27T06:44:01.565Z,22.30
2019-06-27T06:45:08.846Z,22.30
2019-06-27T06:46:15.343Z,22.20
2019-06-27T06:47:22.368Z,22.20
2019-06-27T06:48:28.820Z,22.20
2019-06-27T06:49:35.847Z,22.20
2019-06-27T06:50:42.532Z,22.30
2019-06-27T06:51:49.823Z,22.40
2019-06-27T06:52:56.622Z,22.50
2019-06-27T06:54:03.971Z,22.50
2019-06-27T06:55:10.793Z,22.50
2019-06-27T06:56:17.834Z,22.50
2019-06-27T06:57:24.769Z,22.50
2019-06-27T06:58:31.949Z,22.40
2019-06-27T06:59:39.192Z,22.40
2019-06-27T07:01:00.363Z,22.40
2019-06-27T07:01:54.047Z,22.40
2019-06-27T07:03:01.023Z,22.50
2019-06-27T07:04:07.456Z,22.50
2019-06-27T07:05:14.349Z,22.60
2019-06-27T07:06:20.480Z,22.60
2019-06-27T07:07:27.267Z,22.60
2019-06-27T07:08:33.592Z,22.70
2019-06-27T07:09:40.555Z,22.70
2019-06-27T07:10:46.876Z,22.80
2019-06-27T07:11:53.807Z,22.70
2019-06-27T07:13:00.190Z,22.80
2019-06-27T07:14:08.066Z,22.80
2019-06-27T07:15:14.989Z,22.70
2019-06-27T07:16:22.337Z,22.70
2019-06-27T07:17:29.003Z,22.60
2019-06-27T07:18:35.979Z,22.60
2019-06-27T07:19:42.284Z,22.60
2019-06-27T07:20:49.405Z,22.60
2019-06-27T07:21:55.908Z,22.60
2019-06-27T07:23:03.124Z,22.80
2019-06-27T07:24:09.582Z,22.80
2019-06-27T07:25:16.793Z,22.80
2019-06-27T07:26:23.240Z,22.90
2019-06-27T07:27:30.509Z,22.80
2019-06-27T07:28:36.816Z,22.90
2019-06-27T07:29:43.814Z,22.80
2019-06-27T07:30:50.151Z,22.90
2019-06-27T07:31:56.864Z,22.90
2019-06-27T07:33:03.333Z,22.90
2019-06-27T07:34:10.344Z,22.90
2019-06-27T07:35:16.724Z,22.90
2019-06-27T07:36:23.571Z,23.00
2019-06-27T07:37:29.945Z,23.00
2019-06-27T07:38:36.870Z,23.00
2019-06-27T07:39:43.198Z,23.00
2019-06-27T07:40:50.140Z,23.10
2019-06-27T07:41:56.607Z,23.00
2019-06-27T07:43:03.527Z,22.90
2019-06-27T07:44:10.050Z,23.00
2019-06-27T07:45:17.236Z,22.90
2019-06-27T07:46:25.888Z,22.90
2019-06-27T07:47:32.722Z,23.10
2019-06-27T07:48:39.308Z,23.00
2019-06-27T07:49:46.335Z,23.30
2019-06-27T07:50:52.889Z,23.30
2019-06-27T07:51:59.735Z,23.50
2019-06-27T07:53:05.951Z,23.60
2019-06-27T07:54:12.994Z,23.80
2019-06-27T07:55:21.491Z,23.70
2019-06-27T07:56:28.316Z,23.70
2019-06-27T07:57:34.671Z,23.70
2019-06-27T07:58:41.780Z,23.80
2019-06-27T07:59:48.118Z,23.90
2019-06-27T08:00:55.257Z,23.90
2019-06-27T08:02:02.387Z,23.90
2019-06-27T08:03:10.571Z,24.00
2019-06-27T08:04:16.820Z,24.20
2019-06-27T08:05:23.869Z,23.90
2019-06-27T08:06:30.502Z,24.00
2019-06-27T08:07:38.045Z,24.10
2019-06-27T08:08:44.489Z,24.00
2019-06-27T08:09:51.417Z,23.90
2019-06-27T08:10:57.804Z,23.70
2019-06-27T08:12:04.906Z,23.80
2019-06-27T08:13:11.553Z,23.90
2019-06-27T08:14:18.736Z,24.00
2019-06-27T08:15:25.254Z,23.90
2019-06-27T08:16:32.016Z,23.70
2019-06-27T08:17:38.419Z,23.70
2019-06-27T08:18:45.771Z,23.70
2019-06-27T08:19:52.415Z,23.90
2019-06-27T08:20:59.401Z,23.80
2019-06-27T08:22:05.722Z,23.70
2019-06-27T08:23:12.828Z,23.70
2019-06-27T08:24:19.343Z,23.50
2019-06-27T08:25:26.408Z,23.50
2019-06-27T08:26:32.801Z,23.50
2019-06-27T08:27:39.851Z,23.50
2019-06-27T08:28:46.528Z,23.60
2019-06-27T08:29:53.808Z,23.80
2019-06-27T08:31:00.138Z,23.90
2019-06-27T08:32:06.979Z,23.90
2019-06-27T08:33:13.387Z,23.80
2019-06-27T08:34:20.334Z,23.90
2019-06-27T08:35:26.813Z,23.80
2019-06-27T08:36:33.757Z,23.60
2019-06-27T08:37:40.294Z,23.70
2019-06-27T08:38:47.535Z,23.70
2019-06-27T08:39:53.937Z,23.80
2019-06-27T08:41:01.014Z,23.90
2019-06-27T08:42:07.393Z,23.90
2019-06-27T08:43:14.403Z,24.00
2019-06-27T08:44:21.132Z,23.90
2019-06-27T08:45:28.075Z,23.90
2019-06-27T08:46:35.149Z,23.90
2019-06-27T08:47:42.426Z,23.80
2019-06-27T08:48:48.832Z,23.70
2019-06-27T08:49:55.550Z,23.90
2019-06-27T08:51:01.972Z,23.90
2019-06-27T08:52:09.018Z,23.90
2019-06-27T08:53:15.279Z,23.90
2019-06-27T08:54:23.453Z,23.80
2019-06-27T08:55:29.811Z,23.90
2019-06-27T08:56:36.972Z,23.60
2019-06-27T08:57:43.893Z,23.50
2019-06-27T08:58:50.866Z,23.40
2019-06-27T08:59:57.202Z,23.40
2019-06-27T09:01:04.106Z,23.40
2019-06-27T09:02:10.767Z,23.60
2019-06-27T09:03:19.185Z,23.60
2019-06-27T09:04:25.422Z,23.50
2019-06-27T09:05:32.323Z,23.60
2019-06-27T09:06:38.724Z,23.60
2019-06-27T09:07:45.879Z,23.60
2019-06-27T09:08:53.810Z,23.50
2019-06-27T09:10:00.958Z,23.50
2019-06-27T09:11:08.478Z,23.40
2019-06-27T09:12:15.454Z,23.60
2019-06-27T09:13:21.930Z,23.60
2019-06-27T09:14:28.932Z,23.70
2019-06-27T09:15:35.482Z,23.60
2019-06-27T09:16:46.268Z,23.60
2019-06-27T09:17:51.482Z,23.50
2019-06-27T09:18:58.374Z,23.40
2019-06-27T09:20:05.138Z,23.40
2019-06-27T09:21:12.449Z,23.40
2019-06-27T09:22:19.931Z,23.40
2019-06-27T09:23:26.995Z,23.40
2019-06-27T09:24:33.776Z,23.30
2019-06-27T09:25:40.996Z,23.30
2019-06-27T09:26:47.828Z,23.20
2019-06-27T09:27:54.919Z,23.20
2019-06-27T09:29:01.505Z,23.10
2019-06-27T09:30:08.869Z,23.00
2019-06-27T09:31:15.478Z,23.10
2019-06-27T09:32:26.068Z,23.00
2019-06-27T09:33:30.822Z,23.00
2019-06-27T09:34:38.988Z,23.00
2019-06-27T09:35:45.469Z,22.90
2019-06-27T09:36:53.407Z,23.00
2019-06-27T09:38:00.000Z,22.90
2019-06-27T09:39:07.332Z,22.80
2019-06-27T09:40:14.127Z,22.80
2019-06-27T09:41:21.436Z,22.90
2019-06-27T09:42:28.869Z,23.00
2019-06-27T09:43:36.141Z,23.00
2019-06-27T09:44:42.810Z,23.00
2019-06-27T09:45:50.246Z,22.90
2019-06-27T09:46:56.952Z,22.90
2019-06-27T09:48:04.057Z,22.90
2019-06-27T09:49:10.573Z,22.80
2019-06-27T09:50:21.394Z,22.80
2019-06-27T09:51:25.741Z,22.70
2019-06-27T09:52:32.830Z,22.90
2019-06-27T09:53:39.379Z,22.90
2019-06-27T09:54:46.451Z,22.90
2019-06-27T09:55:53.223Z,23.00
2019-06-27T09:57:00.150Z,23.00
2019-06-27T09:58:06.902Z,23.20
2019-06-27T09:59:14.160Z,23.30
2019-06-27T10:00:21.247Z,23.50
2019-06-27T10:01:28.055Z,23.60
2019-06-27T10:02:41.763Z,23.70
2019-06-27T10:03:43.159Z,23.70
2019-06-27T10:04:49.480Z,23.70
2019-06-27T10:05:56.356Z,23.80
2019-06-27T10:07:03.009Z,23.80
2019-06-27T10:08:10.091Z,23.60
2019-06-27T10:09:16.411Z,23.70
2019-06-27T10:10:23.414Z,23.80
2019-06-27T10:11:29.962Z,23.80
2019-06-27T10:12:43.013Z,23.80
2019-06-27T10:13:46.336Z,24.00
2019-06-27T10:14:53.322Z,24.20
2019-06-27T10:15:59.538Z,24.00
2019-06-27T10:17:06.439Z,24.10
2019-06-27T10:18:13.838Z,24.10
2019-06-27T10:19:20.629Z,24.10
2019-06-27T10:20:27.011Z,24.20
2019-06-27T10:21:33.987Z,24.00
2019-06-27T10:22:41.543Z,23.90
2019-06-27T10:23:48.559Z,24.00
2019-06-27T10:24:54.905Z,24.00
2019-06-27T10:26:01.763Z,24.00
2019-06-27T10:27:08.243Z,23.90
2019-06-27T10:28:15.285Z,24.00
2019-06-27T10:29:22.304Z,23.80
2019-06-27T10:30:29.388Z,23.90
2019-06-27T10:31:35.635Z,24.00
2019-06-27T10:32:57.575Z,24.10
2019-06-27T10:33:50.635Z,24.30
2019-06-27T10:34:57.642Z,24.40
2019-06-27T10:36:04.012Z,24.40
2019-06-27T10:37:10.921Z,24.40
2019-06-27T10:38:17.375Z,24.30
2019-06-27T10:39:24.468Z,24.10
2019-06-27T10:40:30.982Z,23.80
2019-06-27T10:41:37.934Z,24.00
2019-06-27T10:42:44.275Z,24.30
2019-06-27T10:43:51.435Z,24.50
2019-06-27T10:44:57.990Z,24.50
2019-06-27T10:46:04.798Z,24.50
2019-06-27T10:47:11.171Z,24.40
2019-06-27T10:48:19.398Z,24.40
2019-06-27T10:49:25.820Z,24.50
2019-06-27T10:50:32.750Z,24.70
2019-06-27T10:51:38.955Z,24.60
2019-06-27T10:52:46.235Z,24.70
2019-06-27T10:53:52.660Z,24.60
2019-06-27T10:54:59.595Z,24.80
2019-06-27T10:56:05.987Z,25.00
2019-06-27T10:57:12.909Z,24.90
2019-06-27T10:58:19.289Z,25.00
2019-06-27T10:59:26.354Z,25.00
2019-06-27T11:00:32.561Z,25.10
2019-06-27T11:01:40.547Z,25.10
2019-06-27T11:02:46.967Z,25.20
2019-06-27T11:03:54.089Z,25.20
2019-06-27T11:05:00.348Z,25.40
2019-06-27T11:06:08.730Z,25.30
2019-06-27T11:07:14.993Z,25.00
2019-06-27T11:08:21.968Z,25.20
2019-06-27T11:09:28.412Z,25.30
2019-06-27T11:10:35.438Z,25.40
2019-06-27T11:11:42.058Z,25.60
2019-06-27T11:12:49.160Z,25.70
2019-06-27T11:13:59.323Z,25.80
2019-06-27T11:15:04.196Z,25.80
2019-06-27T11:16:10.630Z,25.60
2019-06-27T11:17:17.733Z,25.20
2019-06-27T11:18:24.174Z,25.10
2019-06-27T11:19:31.121Z,24.90
2019-06-27T11:20:37.357Z,24.60
2019-06-27T11:21:44.227Z,24.60
2019-06-27T11:22:50.588Z,25.10
2019-06-27T11:23:57.702Z,26.80
2019-06-27T11:25:04.152Z,28.10
2019-06-27T11:26:10.983Z,28.90
2019-06-27T11:27:17.208Z,29.80
2019-06-27T11:28:24.296Z,30.70
2019-06-27T11:29:30.779Z,31.10
2019-06-27T11:30:37.862Z,32.40
2019-06-27T11:31:44.112Z,32.70
2019-06-27T11:32:50.977Z,31.00
2019-06-27T11:33:57.403Z,30.80
2019-06-27T11:35:04.476Z,29.40
2019-06-27T11:36:11.158Z,29.90
2019-06-27T11:37:18.380Z,29.30
2019-06-27T11:38:24.744Z,29.60
2019-06-27T11:39:31.571Z,29.60
2019-06-27T11:40:37.929Z,29.30
2019-06-27T11:41:44.847Z,29.40
2019-06-27T11:42:51.139Z,30.80
2019-06-27T11:43:59.163Z,31.70
2019-06-27T11:45:06.711Z,31.70
2019-06-27T11:46:13.765Z,32.20
2019-06-27T11:47:20.072Z,33.20
2019-06-27T11:48:27.092Z,32.00
2019-06-27T11:49:33.491Z,30.60
2019-06-27T11:50:40.519Z,30.00
2019-06-27T11:51:47.084Z,31.50
2019-06-27T11:52:54.003Z,33.10
2019-06-27T11:54:00.908Z,34.60
2019-06-27T11:55:09.022Z,35.20
2019-06-27T11:56:15.410Z,35.30
2019-06-27T11:57:22.477Z,35.30
2019-06-27T11:58:28.775Z,35.40
2019-06-27T11:59:35.564Z,34.40
2019-06-27T12:00:41.950Z,32.50
2019-06-27T12:01:49.151Z,30.70
2019-06-27T12:02:55.745Z,29.00
2019-06-27T12:04:02.829Z,28.00
2019-06-27T12:05:10.359Z,28.70
2019-06-27T12:06:17.367Z,30.90
2019-06-27T12:07:23.616Z,31.20
2019-06-27T12:08:30.799Z,32.30
2019-06-27T12:09:37.189Z,32.60
2019-06-27T12:10:44.248Z,30.50
2019-06-27T12:11:50.618Z,31.70
2019-06-27T12:12:57.646Z,31.20
2019-06-27T12:14:04.331Z,32.10
2019-06-27T12:15:11.467Z,30.60
2019-06-27T12:16:17.821Z,29.00
2019-06-27T12:17:24.705Z,28.50
2019-06-27T12:18:30.885Z,28.00
2019-06-27T12:19:37.796Z,30.30
2019-06-27T12:20:44.128Z,31.90
2019-06-27T12:21:51.161Z,33.60
2019-06-27T12:22:57.590Z,34.70
2019-06-27T12:24:04.706Z,35.80
2019-06-27T12:25:12.182Z,36.40
2019-06-27T12:26:19.150Z,36.10
2019-06-27T12:27:25.617Z,35.50
2019-06-27T12:28:32.539Z,36.20
2019-06-27T12:29:39.182Z,35.30
2019-06-27T12:30:46.048Z,35.20
2019-06-27T12:31:52.594Z,33.50
2019-06-27T12:33:02.307Z,31.50
2019-06-27T12:34:08.893Z,30.20
2019-06-27T12:35:16.900Z,31.70
2019-06-27T12:36:23.165Z,33.00
2019-06-27T12:37:30.269Z,33.90
2019-06-27T12:38:36.697Z,34.70
2019-06-27T12:39:43.643Z,35.00
2019-06-27T12:40:50.118Z,35.50
2019-06-27T12:41:57.237Z,35.20
2019-06-27T12:43:03.818Z,35.50
2019-06-27T12:44:10.928Z,36.00
2019-06-27T12:45:18.614Z,34.60
2019-06-27T12:46:25.458Z,35.30
2019-06-27T12:47:31.778Z,36.10
2019-06-27T12:48:38.754Z,36.20
2019-06-27T12:50:01.241Z,36.70
2019-06-27T12:50:53.637Z,34.90
2019-06-27T12:51:59.669Z,33.30
2019-06-27T12:53:06.754Z,31.60
2019-06-27T12:54:13.160Z,30.00
2019-06-27T12:55:20.086Z,29.00
2019-06-27T12:56:27.553Z,28.10
2019-06-27T12:57:34.528Z,28.30
2019-06-27T12:58:40.922Z,30.80
2019-06-27T12:59:47.764Z,31.70
2019-06-27T13:00:54.238Z,33.00
2019-06-27T13:02:01.101Z,33.80
2019-06-27T13:03:07.404Z,34.60
2019-06-27T13:04:23.268Z,35.60
2019-06-27T13:05:22.149Z,36.00
2019-06-27T13:06:29.243Z,36.20
2019-06-27T13:07:35.937Z,36.40
2019-06-27T13:08:42.896Z,36.30
2019-06-27T13:09:49.582Z,35.40
2019-06-27T13:10:56.480Z,34.00
2019-06-27T13:12:02.829Z,33.10
2019-06-27T13:13:09.778Z,32.90
2019-06-27T13:14:16.179Z,31.70
2019-06-27T13:15:23.084Z,31.70
2019-06-27T13:16:31.128Z,30.80
2019-06-27T13:17:38.356Z,30.50
2019-06-27T13:18:44.703Z,29.80
2019-06-27T13:19:51.809Z,29.10
2019-06-27T13:20:58.897Z,28.70
2019-06-27T13:22:05.996Z,28.50
2019-06-27T13:23:12.357Z,28.40
2019-06-27T13:24:19.387Z,28.10
2019-06-27T13:25:25.877Z,27.80
2019-06-27T13:26:32.887Z,27.60
2019-06-27T13:27:39.158Z,27.40
2019-06-27T13:28:45.928Z,27.50
2019-06-27T13:29:53.349Z,27.50
2019-06-27T13:31:00.277Z,27.30
2019-06-27T13:32:06.609Z,27.30
2019-06-27T13:33:13.869Z,27.50
2019-06-27T13:34:20.312Z,27.50
2019-06-27T13:35:27.269Z,27.20
2019-06-27T13:36:33.671Z,27.10
2019-06-27T13:37:40.627Z,27.30
2019-06-27T13:38:46.841Z,27.20
2019-06-27T13:39:56.099Z,27.10
2019-06-27T13:41:02.683Z,26.90
2019-06-27T13:42:09.523Z,26.90
2019-06-27T13:43:17.179Z,26.90
2019-06-27T13:44:24.222Z,26.90
2019-06-27T13:45:30.580Z,27.00
2019-06-27T13:46:38.083Z,27.10
2019-06-27T13:47:44.648Z,26.80
2019-06-27T13:48:51.415Z,26.40
2019-06-27T13:49:57.968Z,26.50
2019-06-27T13:51:05.120Z,26.70
2019-06-27T13:52:12.430Z,26.70
2019-06-27T13:53:19.507Z,26.80
2019-06-27T13:54:26.242Z,27.00
2019-06-27T13:55:33.278Z,27.30
2019-06-27T13:56:39.811Z,27.70
2019-06-27T13:57:47.596Z,27.80
2019-06-27T13:58:54.472Z,28.20
2019-06-27T14:00:01.819Z,28.30
2019-06-27T14:01:11.008Z,29.50
2019-06-27T14:02:17.637Z,30.60
2019-06-27T14:03:24.071Z,31.50
2019-06-27T14:04:30.957Z,31.80
2019-06-27T14:05:37.383Z,31.30
2019-06-27T14:06:44.458Z,30.10
2019-06-27T14:07:50.926Z,30.00
2019-06-27T14:08:57.739Z,29.20
2019-06-27T14:10:03.943Z,29.40
2019-06-27T14:11:11.288Z,30.50
2019-06-27T14:12:17.738Z,30.80
2019-06-27T14:13:24.657Z,30.90
2019-06-27T14:14:30.907Z,31.10
2019-06-27T14:15:37.760Z,29.80
2019-06-27T14:16:44.085Z,28.80
2019-06-27T14:17:51.026Z,28.20
2019-06-27T14:18:57.447Z,27.60
2019-06-27T14:20:04.325Z,28.30
2019-06-27T14:21:10.785Z,28.30
2019-06-27T14:22:32.901Z,27.80
2019-06-27T14:23:26.691Z,28.10
2019-06-27T14:24:33.799Z,28.20
2019-06-27T14:25:41.019Z,28.10